createdAt,value
2023-03-18T00:00:09.839Z,7.60
2023-03-18T00:02:15.888Z,7.70
2023-03-18T00:04:22.509Z,7.70
2023-03-18T00:06:28.308Z,7.70
2023-03-18T00:08:35.069Z,7.70
2023-03-18T00:10:41.906Z,7.70
2023-03-18T00:12:49.869Z,7.70
2023-03-18T00:14:57.239Z,7.80
2023-03-18T00:17:03.079Z,7.80
2023-03-18T00:19:08.175Z,7.70
2023-03-18T00:21:13.555Z,7.60
2023-03-18T00:23:18.693Z,7.70
2023-03-18T00:25:23.891Z,7.70
2023-03-18T00:27:29.622Z,7.70
2023-03-18T00:29:34.545Z,7.70
2023-03-18T00:31:42.387Z,7.50
2023-03-18T00:33:47.999Z,7.30
2023-03-18T00:35:54.807Z,7.40
2023-03-18T00:38:04.138Z,7.40
2023-03-18T00:40:17.487Z,7.40
2023-03-18T00:42:23.995Z,7.50
2023-03-18T00:44:28.927Z,7.40
2023-03-18T00:46:38.526Z,7.50
2023-03-18T00:48:49.183Z,7.50
2023-03-18T00:50:54.563Z,7.60
2023-03-18T00:52:59.855Z,7.60
2023-03-18T00:55:05.153Z,7.70
2023-03-18T00:57:11.190Z,7.60
2023-03-18T00:59:18.414Z,7.70
2023-03-18T01:01:24.785Z,7.70
2023-03-18T01:03:34.172Z,7.70
2023-03-18T01:05:43.982Z,7.70
2023-03-18T01:07:49.665Z,7.80
2023-03-18T01:09:55.111Z,7.80
2023-03-18T01:12:03.081Z,7.80
2023-03-18T01:14:08.031Z,7.70
2023-03-18T01:16:14.266Z,7.60
2023-03-18T01:18:19.788Z,7.70
2023-03-18T01:20:25.560Z,7.70
2023-03-18T01:22:35.982Z,7.70
2023-03-18T01:24:41.240Z,7.60
2023-03-18T01:26:47.278Z,7.70
2023-03-18T01:28:52.914Z,7.70
2023-03-18T01:30:58.797Z,7.60
2023-03-18T01:33:04.837Z,7.60
2023-03-18T01:35:12.267Z,7.70
2023-03-18T01:37:29.024Z,7.50
2023-03-18T01:39:47.439Z,7.40
2023-03-18T01:41:58.528Z,7.50
2023-03-18T01:44:19.221Z,7.50
2023-03-18T01:46:39.040Z,7.60
2023-03-18T01:48:44.816Z,7.70
2023-03-18T01:50:54.686Z,7.70
2023-03-18T01:53:06.198Z,7.70
2023-03-18T01:55:22.499Z,7.50
2023-03-18T01:57:27.856Z,7.40
2023-03-18T01:59:38.938Z,7.30
2023-03-18T02:01:51.528Z,7.40
2023-03-18T02:03:57.576Z,7.40
2023-03-18T02:06:03.237Z,7.50
2023-03-18T02:08:08.442Z,7.60
2023-03-18T02:10:22.181Z,7.70
2023-03-18T02:12:33.404Z,7.70
2023-03-18T02:14:39.572Z,7.70
2023-03-18T02:16:50.468Z,7.70
2023-03-18T02:19:02.399Z,7.70
2023-03-18T02:21:37.082Z,7.80
2023-03-18T02:23:52.807Z,7.80
2023-03-18T02:26:09.886Z,7.80
2023-03-18T02:28:28.793Z,7.80
2023-03-18T02:30:40.638Z,7.80
2023-03-18T02:32:49.996Z,7.90
2023-03-18T02:34:55.690Z,7.80
2023-03-18T02:37:03.083Z,7.90
2023-03-18T02:39:10.516Z,7.90
2023-03-18T02:41:20.818Z,7.90
2023-03-18T02:43:31.711Z,7.90
2023-03-18T02:45:48.453Z,7.90
2023-03-18T02:47:56.163Z,7.90
2023-03-18T02:50:02.998Z,7.90
2023-03-18T02:52:10.171Z,7.90
2023-03-18T02:54:20.324Z,8.00
2023-03-18T02:56:25.798Z,8.00
2023-03-18T02:58:36.105Z,8.00
2023-03-18T03:00:42.084Z,8.00
2023-03-18T03:02:47.367Z,8.00
2023-03-18T03:04:52.989Z,8.10
2023-03-18T03:07:01.531Z,8.00
2023-03-18T03:09:22.921Z,8.10
2023-03-18T03:11:29.906Z,8.10
2023-03-18T03:13:47.717Z,8.00
2023-03-18T03:15:54.994Z,7.90
2023-03-18T03:18:00.221Z,7.70
2023-03-18T03:20:07.671Z,7.80
2023-03-18T03:22:12.994Z,7.80
2023-03-18T03:24:18.724Z,7.70
2023-03-18T03:26:25.137Z,7.70
2023-03-18T03:28:32.258Z,7.70
2023-03-18T03:30:40.919Z,7.80
2023-03-18T03:32:45.860Z,7.80
2023-03-18T03:34:50.966Z,7.90
2023-03-18T03:36:56.843Z,7.90
2023-03-18T03:39:04.233Z,7.90
2023-03-18T03:41:15.908Z,7.80
2023-03-18T03:43:22.294Z,7.70
2023-03-18T03:45:29.713Z,7.70
2023-03-18T03:47:37.598Z,7.80
2023-03-18T03:49:44.158Z,7.80
2023-03-18T03:51:51.231Z,7.90
2023-03-18T03:53:57.506Z,7.90
2023-03-18T03:56:03.962Z,7.90
2023-03-18T03:58:09.519Z,7.90
2023-03-18T04:00:21.639Z,7.90
2023-03-18T04:02:27.943Z,7.80
2023-03-18T04:04:37.660Z,7.80
2023-03-18T04:06:44.437Z,7.80
2023-03-18T04:08:49.988Z,7.90
2023-03-18T04:10:55.610Z,7.90
2023-03-18T04:13:01.196Z,7.70
2023-03-18T04:15:09.664Z,7.60
2023-03-18T04:17:15.075Z,7.60
2023-03-18T04:19:20.099Z,7.60
2023-03-18T04:21:31.503Z,7.70
2023-03-18T04:23:36.566Z,7.70
2023-03-18T04:25:41.641Z,7.70
2023-03-18T04:27:46.952Z,7.60
2023-03-18T04:29:54.145Z,7.60
2023-03-18T04:32:01.774Z,7.70
2023-03-18T04:34:09.772Z,7.70
2023-03-18T04:36:14.720Z,7.80
2023-03-18T04:38:23.586Z,7.70
2023-03-18T04:40:30.848Z,7.70
2023-03-18T04:42:36.680Z,7.60
2023-03-18T04:44:41.716Z,7.60
2023-03-18T04:46:48.206Z,7.50
2023-03-18T04:48:55.693Z,7.50
2023-03-18T04:51:03.189Z,7.40
2023-03-18T04:53:10.044Z,7.50
2023-03-18T04:55:21.695Z,7.70
2023-03-18T04:57:27.729Z,7.70
2023-03-18T04:59:35.533Z,7.70
2023-03-18T05:01:45.284Z,7.80
2023-03-18T05:03:55.587Z,7.80
2023-03-18T05:06:03.564Z,7.80
2023-03-18T05:08:27.358Z,7.90
2023-03-18T05:10:35.607Z,7.90
2023-03-18T05:12:42.320Z,7.90
2023-03-18T05:14:50.239Z,7.90
2023-03-18T05:16:55.162Z,7.90
2023-03-18T05:19:00.437Z,7.90
2023-03-18T05:21:07.424Z,7.90
2023-03-18T05:23:12.582Z,7.80
2023-03-18T05:25:23.258Z,7.80
2023-03-18T05:27:31.148Z,7.80
2023-03-18T05:29:42.438Z,7.80
2023-03-18T05:32:04.615Z,7.80
2023-03-18T05:34:10.944Z,7.80
2023-03-18T05:36:17.466Z,7.80
2023-03-18T05:38:34.139Z,7.90
2023-03-18T05:40:40.425Z,7.90
2023-03-18T05:42:56.906Z,7.80
2023-03-18T05:45:14.392Z,7.80
2023-03-18T05:47:27.889Z,7.80
2023-03-18T05:49:43.426Z,7.90
2023-03-18T05:51:55.192Z,7.70
2023-03-18T05:54:16.603Z,7.70
2023-03-18T05:56:22.591Z,7.80
2023-03-18T05:58:34.486Z,7.80
2023-03-18T06:01:02.226Z,7.80
2023-03-18T06:03:11.045Z,7.80
2023-03-18T06:05:19.476Z,7.80
2023-03-18T06:07:30.544Z,7.80
2023-03-18T06:09:36.005Z,7.80
2023-03-18T06:11:41.652Z,7.70
2023-03-18T06:13:49.688Z,7.70
2023-03-18T06:16:00.440Z,7.80
2023-03-18T06:18:07.835Z,7.80
2023-03-18T06:20:18.709Z,7.80
2023-03-18T06:22:23.698Z,7.90
2023-03-18T06:24:31.019Z,8.00
2023-03-18T06:26:36.396Z,8.10
2023-03-18T06:28:46.098Z,8.10
2023-03-18T06:31:01.640Z,8.00
2023-03-18T06:33:07.424Z,8.00
2023-03-18T06:35:14.732Z,8.00
2023-03-18T06:37:19.678Z,8.00
2023-03-18T06:39:25.467Z,8.00
2023-03-18T06:41:30.827Z,8.10
2023-03-18T06:43:54.367Z,8.10
2023-03-18T06:46:02.185Z,8.20
2023-03-18T06:48:11.885Z,8.20
2023-03-18T06:50:22.714Z,8.30
2023-03-18T06:52:28.558Z,8.30
2023-03-18T06:54:39.208Z,8.30
2023-03-18T06:56:46.335Z,8.40
2023-03-18T06:58:56.754Z,8.30
2023-03-18T07:01:04.592Z,8.40
2023-03-18T07:03:17.220Z,8.40
2023-03-18T07:05:23.965Z,8.50
2023-03-18T07:07:30.839Z,8.50
2023-03-18T07:09:36.432Z,8.60
2023-03-18T07:11:41.404Z,8.60
2023-03-18T07:13:53.183Z,8.70
2023-03-18T07:16:13.874Z,8.70
2023-03-18T07:18:19.689Z,8.70
2023-03-18T07:20:25.431Z,8.80
2023-03-18T07:22:33.924Z,8.80
2023-03-18T07:24:39.078Z,8.90
2023-03-18T07:26:45.643Z,9.00
2023-03-18T07:28:51.876Z,9.00
2023-03-18T07:30:58.267Z,9.00
2023-03-18T07:33:05.898Z,9.10
2023-03-18T07:35:14.205Z,9.10
2023-03-18T07:37:20.721Z,9.10
2023-03-18T07:39:26.220Z,9.20
2023-03-18T07:41:31.451Z,9.20
2023-03-18T07:43:38.616Z,9.30
2023-03-18T07:45:44.300Z,9.30
2023-03-18T07:47:50.044Z,9.30
2023-03-18T07:49:57.517Z,9.30
2023-03-18T07:52:05.038Z,9.40
2023-03-18T07:54:10.006Z,9.50
2023-03-18T07:56:17.584Z,9.50
2023-03-18T07:58:28.449Z,9.50
2023-03-18T08:00:33.639Z,9.60
2023-03-18T08:02:39.009Z,9.60
2023-03-18T08:04:46.842Z,9.70
2023-03-18T08:06:58.631Z,9.70
2023-03-18T08:09:05.287Z,9.70
2023-03-18T08:11:10.447Z,9.80
2023-03-18T08:13:15.971Z,9.80
2023-03-18T08:15:23.021Z,9.90
2023-03-18T08:17:29.512Z,9.90
2023-03-18T08:19:34.551Z,9.90
2023-03-18T08:21:39.743Z,9.90
2023-03-18T08:23:47.609Z,10.00
2023-03-18T08:25:54.255Z,10.10
2023-03-18T08:27:59.221Z,10.00
2023-03-18T08:30:04.240Z,10.00
2023-03-18T08:32:10.104Z,10.00
2023-03-18T08:34:17.672Z,10.00
2023-03-18T08:36:22.616Z,10.10
2023-03-18T08:38:28.111Z,10.10
2023-03-18T08:40:35.599Z,10.20
2023-03-18T08:42:40.714Z,10.30
2023-03-18T08:44:45.630Z,10.30
2023-03-18T08:46:50.824Z,10.30
2023-03-18T08:48:57.010Z,10.30
2023-03-18T08:51:02.015Z,10.40
2023-03-18T08:53:09.371Z,10.40
2023-03-18T08:55:15.101Z,10.50
2023-03-18T08:57:22.925Z,10.70
2023-03-18T08:59:27.639Z,11.10
2023-03-18T09:01:33.124Z,11.70
2023-03-18T09:03:38.146Z,11.60
2023-03-18T09:05:44.646Z,11.90
2023-03-18T09:07:49.642Z,11.70
2023-03-18T09:09:55.081Z,11.60
2023-03-18T09:12:00.005Z,11.60
2023-03-18T09:14:08.243Z,11.90
2023-03-18T09:16:13.270Z,12.00
2023-03-18T09:18:18.548Z,11.80
2023-03-18T09:20:23.648Z,12.20
2023-03-18T09:22:29.101Z,12.00
2023-03-18T09:24:35.027Z,11.90
2023-03-18T09:26:40.246Z,11.90
2023-03-18T09:28:46.386Z,12.00
2023-03-18T09:30:54.314Z,12.10
2023-03-18T09:33:01.946Z,12.50
2023-03-18T09:35:12.532Z,12.60
2023-03-18T09:37:18.614Z,12.60
2023-03-18T09:39:25.443Z,12.40
2023-03-18T09:41:55.591Z,12.40
2023-03-18T09:44:15.804Z,12.30
2023-03-18T09:46:35.603Z,12.50
2023-03-18T09:49:06.197Z,12.70
2023-03-18T09:51:24.454Z,12.70
2023-03-18T09:53:41.948Z,12.60
2023-03-18T09:55:50.794Z,12.90
2023-03-18T09:58:03.247Z,12.70
2023-03-18T10:00:21.123Z,12.60
2023-03-18T10:02:36.370Z,12.50
2023-03-18T10:04:49.739Z,12.40
2023-03-18T10:07:00.883Z,12.50
2023-03-18T10:09:17.197Z,12.60
2023-03-18T10:11:29.164Z,12.60
2023-03-18T10:13:43.955Z,12.80
2023-03-18T10:15:56.718Z,13.00
2023-03-18T10:18:13.819Z,13.10
2023-03-18T10:20:22.629Z,13.50
2023-03-18T10:22:51.373Z,13.50
2023-03-18T10:25:09.709Z,13.40
2023-03-18T10:27:25.066Z,13.50
2023-03-18T10:29:43.812Z,13.40
2023-03-18T10:32:04.111Z,13.50
2023-03-18T10:34:17.973Z,13.50
2023-03-18T10:36:27.038Z,13.70
2023-03-18T10:38:37.056Z,13.50
2023-03-18T10:40:45.051Z,13.50
2023-03-18T10:42:53.696Z,13.40
2023-03-18T10:45:10.813Z,13.30
2023-03-18T10:47:23.957Z,13.40
2023-03-18T10:49:37.909Z,13.40
2023-03-18T10:51:53.006Z,13.40
2023-03-18T10:54:09.121Z,13.40
2023-03-18T10:56:16.372Z,13.40
2023-03-18T10:58:23.045Z,13.50
2023-03-18T11:00:34.672Z,13.60
2023-03-18T11:02:42.277Z,14.00
2023-03-18T11:04:55.605Z,13.90
2023-03-18T11:07:04.561Z,13.80
2023-03-18T11:09:12.890Z,13.90
2023-03-18T11:11:32.896Z,14.10
2023-03-18T11:13:37.799Z,14.10
2023-03-18T11:15:51.576Z,14.20
2023-03-18T11:18:05.317Z,14.30
2023-03-18T11:20:25.590Z,14.50
2023-03-18T11:22:33.189Z,14.90
2023-03-18T11:24:42.744Z,14.90
2023-03-18T11:26:51.348Z,14.80
2023-03-18T11:29:00.138Z,14.60
2023-03-18T11:31:09.197Z,14.80
2023-03-18T11:33:19.852Z,15.10
2023-03-18T11:35:39.654Z,15.20
2023-03-18T11:37:46.576Z,15.20
2023-03-18T11:39:59.008Z,15.20
2023-03-18T11:42:04.637Z,15.00
2023-03-18T11:44:19.329Z,14.80
2023-03-18T11:46:29.221Z,14.80
2023-03-18T11:48:38.350Z,14.80
2023-03-18T11:51:06.176Z,14.80
2023-03-18T11:53:19.045Z,14.80
2023-03-18T11:55:41.888Z,14.80
2023-03-18T11:58:27.088Z,14.90
2023-03-18T12:00:38.046Z,15.10
2023-03-18T12:03:03.931Z,15.30
2023-03-18T12:05:41.810Z,15.30
2023-03-18T12:08:07.173Z,15.40
2023-03-18T12:10:28.449Z,15.50
2023-03-18T12:12:51.624Z,15.60
2023-03-18T12:15:06.753Z,15.90
2023-03-18T12:17:32.876Z,15.80
2023-03-18T12:20:24.833Z,15.80
2023-03-18T12:22:48.840Z,15.90
2023-03-18T12:25:20.903Z,16.10
2023-03-18T12:27:39.973Z,16.20
2023-03-18T12:30:09.826Z,16.20
2023-03-18T12:32:27.896Z,16.50
2023-03-18T12:34:45.427Z,16.80
2023-03-18T12:37:04.905Z,16.90
2023-03-18T12:39:54.921Z,17.10
2023-03-18T12:42:09.210Z,17.20
2023-03-18T12:44:29.731Z,17.10
2023-03-18T12:46:40.263Z,17.50
2023-03-18T12:48:54.195Z,17.90
2023-03-18T12:51:06.164Z,18.20
2023-03-18T12:53:20.359Z,18.40
2023-03-18T12:55:31.276Z,18.50
2023-03-18T12:57:48.745Z,18.60
2023-03-18T13:00:04.894Z,18.90
2023-03-18T13:02:43.533Z,19.30
2023-03-18T13:04:56.733Z,19.50
2023-03-18T13:07:15.867Z,19.10
2023-03-18T13:09:28.833Z,19.10
2023-03-18T13:12:09.953Z,19.50
2023-03-18T13:14:28.993Z,19.00
2023-03-18T13:16:39.308Z,18.10
2023-03-18T13:18:50.959Z,17.60
2023-03-18T13:21:00.483Z,17.80
2023-03-18T13:23:41.884Z,18.10
2023-03-18T13:26:03.082Z,18.10
2023-03-18T13:28:34.712Z,18.40
2023-03-18T13:30:59.539Z,18.70
2023-03-18T13:33:35.218Z,19.20
2023-03-18T13:36:17.022Z,19.40
2023-03-18T13:38:46.426Z,19.40
2023-03-18T13:41:12.465Z,19.50
2023-03-18T13:43:21.865Z,20.10
2023-03-18T13:45:33.744Z,20.40
2023-03-18T13:47:45.515Z,20.40
2023-03-18T13:49:51.628Z,20.50
2023-03-18T13:52:01.085Z,20.50
2023-03-18T13:54:12.880Z,20.80
2023-03-18T13:56:31.372Z,20.70
2023-03-18T13:58:48.426Z,20.30
2023-03-18T14:01:33.664Z,20.20
2023-03-18T14:04:04.576Z,20.30
2023-03-18T14:06:26.541Z,20.40
2023-03-18T14:08:49.108Z,20.10
2023-03-18T14:11:53.176Z,20.20
2023-03-18T14:14:02.218Z,20.50
2023-03-18T14:16:14.857Z,20.40
2023-03-18T14:18:37.654Z,20.20
2023-03-18T14:20:46.151Z,19.50
2023-03-18T14:22:54.854Z,19.70
2023-03-18T14:25:44.661Z,20.00
2023-03-18T14:27:54.804Z,20.30
2023-03-18T14:30:51.368Z,20.30
2023-03-18T14:33:01.192Z,20.30
2023-03-18T14:35:29.949Z,20.50
2023-03-18T14:37:38.386Z,20.60
2023-03-18T14:39:47.903Z,20.30
2023-03-18T14:41:59.616Z,20.10
2023-03-18T14:44:20.900Z,20.40
2023-03-18T14:46:37.311Z,20.60
2023-03-18T14:48:43.940Z,20.50
2023-03-18T14:50:52.799Z,20.40
2023-03-18T14:53:05.322Z,20.40
2023-03-18T14:55:25.693Z,20.40
2023-03-18T14:57:30.620Z,20.20
2023-03-18T14:59:35.547Z,20.00
2023-03-18T15:01:50.672Z,19.90
2023-03-18T15:03:57.906Z,20.00
2023-03-18T15:06:06.463Z,20.00
2023-03-18T15:08:19.540Z,19.30
2023-03-18T15:10:29.508Z,19.00
2023-03-18T15:12:34.463Z,19.30
2023-03-18T15:14:39.721Z,19.30
2023-03-18T15:16:57.470Z,19.60
2023-03-18T15:19:02.356Z,19.40
2023-03-18T15:21:12.661Z,19.50
2023-03-18T15:23:18.419Z,19.90
2023-03-18T15:25:26.603Z,20.00
2023-03-18T15:27:34.574Z,19.90
2023-03-18T15:29:46.495Z,19.90
2023-03-18T15:31:55.329Z,20.00
2023-03-18T15:34:20.154Z,20.00
2023-03-18T15:36:25.953Z,20.10
2023-03-18T15:38:33.958Z,20.30
2023-03-18T15:40:48.845Z,20.40
2023-03-18T15:42:59.561Z,20.40
2023-03-18T15:45:08.069Z,20.40
2023-03-18T15:47:21.365Z,20.50
2023-03-18T15:49:31.796Z,20.40
2023-03-18T15:51:45.136Z,20.10
2023-03-18T15:53:59.119Z,20.00
2023-03-18T15:56:19.764Z,19.50
2023-03-18T15:58:29.752Z,19.00
2023-03-18T16:00:40.436Z,19.10
2023-03-18T16:02:48.319Z,19.00
2023-03-18T16:04:54.683Z,18.90
2023-03-18T16:07:00.358Z,18.70
2023-03-18T16:09:17.165Z,18.90
2023-03-18T16:11:24.166Z,19.00
2023-03-18T16:13:37.162Z,19.00
2023-03-18T16:15:42.532Z,19.00
2023-03-18T16:17:52.517Z,19.20
2023-03-18T16:19:57.657Z,19.30
2023-03-18T16:22:03.146Z,19.20
2023-03-18T16:24:10.594Z,19.20
2023-03-18T16:26:17.715Z,19.20
2023-03-18T16:28:26.126Z,19.00
2023-03-18T16:30:36.223Z,18.90
2023-03-18T16:32:41.815Z,18.90
2023-03-18T16:34:49.658Z,18.80
2023-03-18T16:36:55.353Z,18.70
2023-03-18T16:39:00.596Z,18.60
2023-03-18T16:41:05.485Z,18.60
2023-03-18T16:43:31.397Z,18.60
2023-03-18T16:45:37.538Z,18.60
2023-03-18T16:47:43.213Z,18.60
2023-03-18T16:49:51.375Z,18.50
2023-03-18T16:51:57.320Z,18.30
2023-03-18T16:54:02.209Z,18.10
2023-03-18T16:56:18.362Z,18.20
2023-03-18T16:58:30.842Z,18.10
2023-03-18T17:00:36.770Z,18.00
2023-03-18T17:02:41.712Z,18.00
2023-03-18T17:04:46.584Z,17.90
2023-03-18T17:06:54.279Z,17.90
2023-03-18T17:08:59.310Z,17.80
2023-03-18T17:11:07.423Z,17.60
2023-03-18T17:13:22.928Z,17.30
2023-03-18T17:15:37.060Z,17.00
2023-03-18T17:17:44.641Z,17.10
2023-03-18T17:19:49.325Z,17.10
2023-03-18T17:21:57.775Z,17.10
2023-03-18T17:24:03.062Z,17.20
2023-03-18T17:26:11.601Z,17.20
2023-03-18T17:28:24.464Z,17.20
2023-03-18T17:30:35.770Z,17.20
2023-03-18T17:32:42.596Z,17.10
2023-03-18T17:34:51.326Z,17.10
2023-03-18T17:36:59.173Z,16.90
2023-03-18T17:39:05.697Z,16.30
2023-03-18T17:41:21.107Z,16.40
2023-03-18T17:43:30.904Z,16.60
2023-03-18T17:45:38.704Z,16.70
2023-03-18T17:47:43.635Z,16.70
2023-03-18T17:49:48.543Z,16.60
2023-03-18T17:51:53.807Z,16.00
2023-03-18T17:54:05.733Z,15.90
2023-03-18T17:56:15.843Z,16.10
2023-03-18T17:58:23.101Z,16.30
2023-03-18T18:00:31.091Z,16.30
2023-03-18T18:02:38.000Z,16.30
2023-03-18T18:04:43.324Z,16.30
2023-03-18T18:06:49.737Z,16.30
2023-03-18T18:08:58.977Z,16.20
2023-03-18T18:11:21.357Z,15.70
2023-03-18T18:13:26.563Z,15.80
2023-03-18T18:15:31.759Z,16.00
2023-03-18T18:17:39.587Z,16.00
2023-03-18T18:19:45.831Z,16.00
2023-03-18T18:21:53.475Z,16.00
2023-03-18T18:23:58.282Z,15.90
2023-03-18T18:26:05.980Z,15.90
2023-03-18T18:28:20.102Z,15.80
2023-03-18T18:30:28.333Z,15.80
2023-03-18T18:32:33.859Z,15.10
2023-03-18T18:34:38.887Z,15.10
2023-03-18T18:36:45.090Z,15.10
2023-03-18T18:38:50.948Z,14.70
2023-03-18T18:40:56.587Z,15.00
2023-03-18T18:43:03.252Z,15.20
2023-03-18T18:45:18.144Z,15.20
2023-03-18T18:47:23.484Z,15.30
2023-03-18T18:49:28.820Z,15.00
2023-03-18T18:51:33.846Z,15.10
2023-03-18T18:53:43.403Z,15.20
2023-03-18T18:55:49.435Z,15.20
2023-03-18T18:57:57.303Z,14.80
2023-03-18T19:00:02.331Z,14.80
2023-03-18T19:02:31.549Z,14.90
2023-03-18T19:04:36.713Z,15.00
2023-03-18T19:06:43.414Z,15.00
2023-03-18T19:08:49.247Z,14.90
2023-03-18T19:10:56.672Z,14.60
2023-03-18T19:13:02.244Z,14.20
2023-03-18T19:15:08.196Z,14.40
2023-03-18T19:17:21.048Z,14.60
2023-03-18T19:19:34.964Z,14.50
2023-03-18T19:21:39.870Z,14.50
2023-03-18T19:23:45.944Z,14.50
2023-03-18T19:25:51.631Z,14.50
2023-03-18T19:27:58.146Z,14.50
2023-03-18T19:30:06.129Z,14.50
2023-03-18T19:32:19.932Z,14.50
2023-03-18T19:34:27.077Z,14.50
2023-03-18T19:36:35.039Z,14.40
2023-03-18T19:38:40.370Z,14.40
2023-03-18T19:40:46.830Z,14.40
2023-03-18T19:42:52.067Z,14.40
2023-03-18T19:44:57.797Z,14.30
2023-03-18T19:47:04.048Z,14.30
2023-03-18T19:49:20.682Z,13.70
2023-03-18T19:51:25.709Z,13.50
2023-03-18T19:53:30.939Z,13.60
2023-03-18T19:55:36.202Z,13.60
2023-03-18T19:57:43.593Z,13.50
2023-03-18T19:59:51.501Z,13.60
2023-03-18T20:01:59.848Z,13.70
2023-03-18T20:04:09.257Z,13.70
2023-03-18T20:06:16.836Z,13.70
2023-03-18T20:08:21.802Z,13.50
2023-03-18T20:10:31.552Z,13.50
2023-03-18T20:12:39.347Z,13.50
2023-03-18T20:14:46.873Z,13.40
2023-03-18T20:16:54.617Z,13.10
2023-03-18T20:18:59.705Z,13.20
2023-03-18T20:21:04.790Z,13.20
2023-03-18T20:23:20.991Z,13.00
2023-03-18T20:25:31.660Z,13.00
2023-03-18T20:27:36.715Z,13.10
2023-03-18T20:29:43.524Z,13.10
2023-03-18T20:31:48.693Z,13.10
2023-03-18T20:33:53.627Z,13.10
2023-03-18T20:36:01.362Z,13.00
2023-03-18T20:38:15.484Z,12.90
2023-03-18T20:40:26.443Z,12.80
2023-03-18T20:42:31.868Z,12.30
2023-03-18T20:44:39.125Z,12.20
2023-03-18T20:46:45.790Z,12.20
2023-03-18T20:48:51.203Z,12.40
2023-03-18T20:50:58.915Z,12.00
2023-03-18T20:53:04.456Z,12.10
2023-03-18T20:55:25.497Z,12.20
2023-03-18T20:57:30.754Z,12.20
2023-03-18T20:59:36.020Z,12.10
2023-03-18T21:01:41.776Z,11.60
2023-03-18T21:03:52.235Z,11.60
2023-03-18T21:05:59.438Z,11.80
2023-03-18T21:08:04.336Z,12.00
2023-03-18T21:10:19.262Z,12.10
2023-03-18T21:12:25.092Z,12.00
2023-03-18T21:14:30.677Z,11.90
2023-03-18T21:16:37.824Z,12.00
2023-03-18T21:18:45.435Z,12.00
2023-03-18T21:20:50.676Z,12.00
2023-03-18T21:22:57.118Z,11.90
2023-03-18T21:25:03.681Z,11.80
2023-03-18T21:27:26.601Z,11.70
2023-03-18T21:29:31.653Z,11.60
2023-03-18T21:31:37.240Z,11.60
2023-03-18T21:33:43.900Z,11.70
2023-03-18T21:35:50.414Z,11.70
2023-03-18T21:37:56.223Z,11.60
2023-03-18T21:40:01.500Z,11.70
2023-03-18T21:42:07.109Z,11.70
2023-03-18T21:44:18.349Z,11.60
2023-03-18T21:46:28.181Z,11.60
2023-03-18T21:48:33.395Z,10.80
2023-03-18T21:50:38.660Z,10.70
2023-03-18T21:52:43.817Z,11.00
2023-03-18T21:54:50.734Z,11.20
2023-03-18T21:56:56.333Z,11.30
2023-03-18T21:59:03.149Z,11.30
2023-03-18T22:01:19.986Z,11.30
2023-03-18T22:03:29.011Z,11.30
2023-03-18T22:05:34.191Z,11.30
2023-03-18T22:07:39.462Z,11.10
2023-03-18T22:09:44.734Z,10.70
2023-03-18T22:11:50.160Z,10.50
2023-03-18T22:13:55.299Z,10.50
2023-03-18T22:16:00.271Z,10.60
2023-03-18T22:18:09.067Z,10.70
2023-03-18T22:20:16.030Z,10.80
2023-03-18T22:22:24.747Z,10.90
2023-03-18T22:24:30.707Z,11.00
2023-03-18T22:26:35.614Z,11.00
2023-03-18T22:28:40.601Z,11.00
2023-03-18T22:30:51.972Z,10.90
2023-03-18T22:32:57.580Z,10.90
2023-03-18T22:35:06.639Z,10.90
2023-03-18T22:37:22.450Z,10.90
2023-03-18T22:39:28.131Z,11.00
2023-03-18T22:41:33.651Z,10.90
2023-03-18T22:43:40.862Z,10.90
2023-03-18T22:45:47.017Z,11.00
2023-03-18T22:47:53.491Z,11.00
2023-03-18T22:50:00.115Z,11.00
2023-03-18T22:52:08.612Z,11.00
2023-03-18T22:54:20.533Z,11.00
2023-03-18T22:56:26.531Z,11.00
2023-03-18T22:58:31.592Z,11.00
2023-03-18T23:00:40.258Z,10.90
2023-03-18T23:02:46.341Z,10.90
2023-03-18T23:04:53.132Z,10.90
2023-03-18T23:06:58.555Z,10.80
2023-03-18T23:09:06.911Z,10.90
2023-03-18T23:11:17.176Z,10.80
2023-03-18T23:13:31.261Z,10.80
2023-03-18T23:15:36.489Z,10.80
2023-03-18T23:17:45.234Z,10.70
2023-03-18T23:19:50.917Z,10.70
2023-03-18T23:21:55.867Z,10.70
2023-03-18T23:24:05.978Z,10.60
2023-03-18T23:26:13.090Z,10.60
2023-03-18T23:28:18.328Z,10.60
2023-03-18T23:30:23.487Z,10.60
2023-03-18T23:32:31.717Z,10.50
2023-03-18T23:34:36.642Z,10.60
2023-03-18T23:36:42.797Z,10.60
2023-03-18T23:38:48.746Z,10.00
2023-03-18T23:40:56.696Z,9.80
2023-03-18T23:43:02.892Z,9.90
2023-03-18T23:45:10.676Z,10.00
2023-03-18T23:47:17.642Z,10.30
2023-03-18T23:49:23.753Z,10.40
2023-03-18T23:51:28.881Z,10.50
2023-03-18T23:53:33.791Z,10.50
2023-03-18T23:55:38.853Z,10.50
2023-03-18T23:57:46.842Z,10.40
2023-03-18T23:59:51.800Z,10.50
